Time;durP1;ratioP1;P1;durP2;ratioP2;P2;SDS_P1;SDS_P2;PMS_P1;PMS_P2;Temp;Humidity;BMP_temperature;BMP_pressure;BME280_temperature;BME280_humidity;BME280_pressure;Samples;Min_cycle;Max_cycle;Signal;HPM_P1;HPM_P2
2022/01/27 00:01:38;;;;;;;45.73;23.20;;;4.20;99.90;;;;;;5058247;28;20448;-83
2022/01/27 00:04:11;;;;;;;44.57;23.03;;;4.20;99.90;;;;;;5058174;28;20455;-83
2022/01/27 00:06:40;;;;;;;41.63;19.23;;;4.20;99.90;;;;;;5054330;28;20547;-84
2022/01/27 00:09:16;;;;;;;46.73;23.50;;;4.20;99.90;;;;;;5054713;28;20488;-83
2022/01/27 00:11:46;;;;;;;45.93;23.00;;;4.20;99.90;;;;;;5056656;28;20479;-83
2022/01/27 00:14:17;;;;;;;43.67;23.07;;;4.20;99.90;;;;;;5058535;28;20515;-84
2022/01/27 00:16:53;;;;;;;42.10;21.20;;;4.20;99.90;;;;;;5055980;28;20480;-84
2022/01/27 00:19:20;;;;;;;47.37;23.50;;;4.20;99.90;;;;;;5057097;28;20523;-83
2022/01/27 00:21:47;;;;;;;40.07;22.07;;;4.10;99.90;;;;;;5062360;28;20893;-83
2022/01/27 00:24:15;;;;;;;41.13;21.70;;;4.10;99.90;;;;;;5060947;28;20456;-83
2022/01/27 00:26:41;;;;;;;44.03;23.53;;;4.10;99.90;;;;;;5061031;28;20469;-82
2022/01/27 00:29:09;;;;;;;43.70;23.37;;;4.00;99.90;;;;;;5059958;28;20589;-85
2022/01/27 00:31:37;;;;;;;38.10;23.33;;;4.10;99.90;;;;;;5060221;28;20800;-84
2022/01/27 00:34:04;;;;;;;41.00;22.30;;;4.00;99.90;;;;;;5061047;28;20471;-83
2022/01/27 00:36:32;;;;;;;37.27;21.30;;;4.00;99.90;;;;;;5061499;28;20484;-83
2022/01/27 00:38:58;;;;;;;36.50;20.67;;;4.00;99.90;;;;;;5063090;28;20456;-83
2022/01/27 00:41:25;;;;;;;42.33;23.00;;;4.00;99.90;;;;;;5064496;28;20452;-83
2022/01/27 00:43:52;;;;;;;39.47;22.73;;;3.90;99.90;;;;;;5061243;28;20451;-83
2022/01/27 00:46:20;;;;;;;43.87;21.57;;;3.80;99.90;;;;;;5046331;28;20476;-84
2022/01/27 00:48:50;;;;;;;43.93;23.43;;;3.90;99.90;;;;;;5058040;28;20465;-84
2022/01/27 00:51:22;;;;;;;42.93;21.73;;;3.90;99.90;;;;;;5060444;28;20983;-83
2022/01/27 00:53:54;;;;;;;40.13;21.80;;;3.90;99.90;;;;;;5045695;28;21284;-84
2022/01/27 00:56:25;;;;;;;41.00;24.13;;;3.80;99.90;;;;;;5059834;28;20454;-83
2022/01/27 00:59:15;;;;;;;35.90;21.70;;;3.80;99.90;;;;;;5064421;28;20502;-83
2022/01/27 01:01:47;;;;;;;40.47;20.83;;;3.90;99.90;;;;;;5064440;28;20456;-82
2022/01/27 01:04:15;;;;;;;34.07;19.60;;;3.80;99.90;;;;;;5051850;28;20914;-84
2022/01/27 01:06:43;;;;;;;38.03;22.30;;;3.90;99.90;;;;;;5049903;28;20512;-84
2022/01/27 01:14:46;;;;;;;36.50;21.47;;;3.80;99.90;;;;;;5069049;28;20431;-82
2022/01/27 01:17:29;;;;;;;33.13;20.63;;;3.80;99.90;;;;;;5067557;28;20947;-82
2022/01/27 01:20:18;;;;;;;42.07;23.57;;;3.80;99.90;;;;;;5062981;28;20517;-83
2022/01/27 01:31:10;;;;;;;36.10;20.77;;;3.80;99.90;;;;;;5051675;28;20470;-84
2022/01/27 01:33:39;;;;;;;38.73;22.00;;;3.90;99.90;;;;;;5050406;28;20481;-84
2022/01/27 01:36:15;;;;;;;32.67;19.57;;;3.90;99.90;;;;;;5041614;28;20477;-83
2022/01/27 01:38:45;;;;;;;39.60;22.37;;;3.80;99.90;;;;;;5046771;28;20462;-84
2022/01/27 01:41:11;;;;;;;35.83;20.30;;;3.70;99.90;;;;;;5061549;28;20448;-84
2022/01/27 01:43:38;;;;;;;36.27;20.80;;;3.80;99.90;;;;;;5060335;28;20460;-83
2022/01/27 01:46:05;;;;;;;32.43;19.50;;;3.70;99.90;;;;;;5060326;28;20478;-83
2022/01/27 01:48:32;;;;;;;36.43;19.40;;;3.80;99.90;;;;;;5061567;28;20443;-84
2022/01/27 01:50:59;;;;;;;41.70;22.53;;;3.80;99.90;;;;;;5060156;28;20494;-84
2022/01/27 01:53:27;;;;;;;35.90;21.23;;;3.80;99.90;;;;;;5052782;28;20466;-84
2022/01/27 01:55:54;;;;;;;39.07;21.53;;;3.90;99.90;;;;;;5040388;28;20469;-83
2022/01/27 01:58:21;;;;;;;44.23;22.87;;;3.80;99.90;;;;;;5060155;28;20451;-83
2022/01/27 02:00:48;;;;;;;40.43;20.90;;;3.80;99.90;;;;;;5060404;28;20454;-84
2022/01/27 02:03:14;;;;;;;41.80;22.07;;;3.80;99.90;;;;;;5058609;28;20466;-83
2022/01/27 02:05:48;;;;;;;39.83;22.37;;;3.80;99.90;;;;;;5059932;28;20486;-83
2022/01/27 02:08:34;;;;;;;44.37;22.30;;;3.80;99.90;;;;;;5060418;28;20456;-83
2022/01/27 02:19:23;;;;;;;38.17;22.23;;;3.70;99.90;;;;;;5060554;28;20451;-83
2022/01/27 02:21:53;;;;;;;40.43;22.30;;;3.70;99.90;;;;;;5061691;28;20460;-83
2022/01/27 02:24:21;;;;;;;39.87;20.97;;;3.70;99.90;;;;;;5061476;28;20456;-84
2022/01/27 02:26:49;;;;;;;47.83;21.97;;;3.70;99.90;;;;;;5061090;28;20475;-83
2022/01/27 02:29:17;;;;;;;36.20;19.60;;;3.60;99.90;;;;;;5061333;28;20555;-83
2022/01/27 02:31:44;;;;;;;44.83;22.27;;;3.60;99.90;;;;;;5060429;28;20448;-82
2022/01/27 02:34:11;;;;;;;38.70;22.93;;;3.60;99.90;;;;;;5052007;28;20457;-84
2022/01/27 02:36:38;;;;;;;35.37;20.70;;;3.70;99.90;;;;;;5044023;28;20554;-84
2022/01/27 02:39:09;;;;;;;43.40;21.33;;;3.70;99.90;;;;;;5062591;28;20455;-83
2022/01/27 02:41:42;;;;;;;41.00;20.70;;;3.70;99.90;;;;;;5061411;28;20974;-83
2022/01/27 02:44:09;;;;;;;37.97;18.53;;;3.80;99.90;;;;;;5052063;28;20961;-84
2022/01/27 02:46:40;;;;;;;36.33;18.63;;;3.80;99.90;;;;;;5041589;28;20475;-83
2022/01/27 02:49:07;;;;;;;32.07;19.20;;;3.80;99.90;;;;;;5061095;28;20459;-83
2022/01/27 02:51:35;;;;;;;36.10;18.40;;;3.80;99.90;;;;;;5061867;28;20972;-83
2022/01/27 02:54:02;;;;;;;42.00;20.40;;;3.80;99.90;;;;;;5059538;28;20488;-83
2022/01/27 02:56:32;;;;;;;40.17;20.53;;;3.70;99.90;;;;;;5046707;28;20498;-82
2022/01/27 02:58:59;;;;;;;35.40;20.17;;;3.70;99.90;;;;;;5042174;28;20470;-83
2022/01/27 03:01:25;;;;;;;37.07;19.23;;;3.70;99.90;;;;;;5046877;28;20458;-83
2022/01/27 03:03:52;;;;;;;32.60;20.23;;;3.70;99.90;;;;;;5045965;28;20623;-82
2022/01/27 03:06:19;;;;;;;38.10;18.60;;;3.70;99.90;;;;;;5057633;28;20490;-83
2022/01/27 03:08:46;;;;;;;39.00;20.03;;;3.80;99.90;;;;;;5060602;28;20567;-82
2022/01/27 03:11:16;;;;;;;39.67;19.87;;;3.80;99.90;;;;;;5046292;28;20541;-84
2022/01/27 03:13:44;;;;;;;37.10;20.83;;;3.70;99.90;;;;;;5041596;28;20457;-83
2022/01/27 03:16:11;;;;;;;39.93;20.40;;;3.80;99.90;;;;;;5056338;28;20506;-83
2022/01/27 03:18:38;;;;;;;34.90;19.30;;;3.80;99.90;;;;;;5064433;28;20450;-84
2022/01/27 03:21:05;;;;;;;39.80;18.80;;;3.90;99.90;;;;;;5077665;28;20451;-82
2022/01/27 03:23:33;;;;;;;29.40;18.03;;;3.80;99.90;;;;;;5064234;28;20551;-83
2022/01/27 03:26:00;;;;;;;37.27;19.10;;;3.80;99.90;;;;;;5064363;28;20451;-82
2022/01/27 03:28:29;;;;;;;34.23;18.70;;;3.80;99.90;;;;;;5066200;28;20476;-84
2022/01/27 03:30:57;;;;;;;33.90;18.53;;;3.90;99.90;;;;;;5052263;28;20561;-83
2022/01/27 03:33:24;;;;;;;33.47;19.60;;;3.90;99.90;;;;;;5055424;28;20482;-83
2022/01/27 03:35:51;;;;;;;39.57;21.70;;;3.90;99.90;;;;;;5060045;28;20509;-84
2022/01/27 03:38:18;;;;;;;35.97;20.03;;;3.90;99.90;;;;;;5059611;28;20467;-83
2022/01/27 03:40:45;;;;;;;36.30;20.43;;;3.90;99.90;;;;;;5060116;28;20444;-83
2022/01/27 03:43:12;;;;;;;34.10;19.87;;;3.90;99.90;;;;;;5060985;28;20450;-83
2022/01/27 03:45:39;;;;;;;30.50;17.60;;;4.00;99.90;;;;;;5061438;28;20482;-84
2022/01/27 03:48:08;;;;;;;34.53;19.90;;;4.00;99.90;;;;;;5059566;28;20448;-83
2022/01/27 03:50:35;;;;;;;33.23;18.60;;;4.00;99.90;;;;;;5060404;28;20480;-83
2022/01/27 03:53:02;;;;;;;36.07;19.03;;;4.00;99.90;;;;;;5060086;28;20542;-82
2022/01/27 03:55:29;;;;;;;30.50;17.93;;;4.00;99.90;;;;;;5060583;28;20499;-81
2022/01/27 03:57:56;;;;;;;31.13;17.70;;;4.00;99.90;;;;;;5053183;28;20452;-82
2022/01/27 04:00:23;;;;;;;40.23;20.47;;;4.10;99.90;;;;;;5056017;28;20451;-83
2022/01/27 04:02:56;;;;;;;31.80;18.37;;;3.90;99.90;;;;;;5059197;28;20451;-83
2022/01/27 04:05:25;;;;;;;36.43;18.83;;;3.90;99.90;;;;;;5059220;28;20582;-83
2022/01/27 04:07:57;;;;;;;32.90;18.23;;;4.00;99.90;;;;;;5058166;28;20833;-82
2022/01/27 04:10:24;;;;;;;31.37;18.57;;;3.90;99.90;;;;;;5060073;28;21060;-82
2022/01/27 04:12:51;;;;;;;29.37;17.53;;;4.00;99.90;;;;;;5039607;28;20817;-81
2022/01/27 04:15:17;;;;;;;36.03;18.20;;;3.90;99.90;;;;;;5053581;28;20569;-83
2022/01/27 04:17:44;;;;;;;34.87;17.50;;;4.00;99.90;;;;;;5054253;28;20532;-82
2022/01/27 04:20:12;;;;;;;34.43;18.90;;;4.00;99.90;;;;;;5053486;28;20523;-83
2022/01/27 04:22:40;;;;;;;33.83;19.50;;;4.10;99.90;;;;;;5059947;28;20458;-83
2022/01/27 04:25:08;;;;;;;33.90;18.50;;;3.90;99.90;;;;;;5059032;28;20476;-82
2022/01/27 04:27:38;;;;;;;33.83;21.17;;;4.00;99.90;;;;;;5063209;28;20452;-83
2022/01/27 04:30:11;;;;;;;36.63;18.23;;;4.00;99.90;;;;;;5045007;28;20478;-83
2022/01/27 04:32:44;;;;;;;32.10;18.87;;;4.10;99.90;;;;;;5050108;28;20605;-83
2022/01/27 04:35:15;;;;;;;37.37;18.93;;;4.00;99.90;;;;;;5042191;28;20866;-84
2022/01/27 04:37:55;;;;;;;34.13;17.90;;;4.00;99.90;;;;;;5051273;28;20479;-84
2022/01/27 04:40:27;;;;;;;33.37;17.93;;;4.00;99.90;;;;;;5063509;28;20467;-82
2022/01/27 04:42:59;;;;;;;38.23;18.77;;;3.90;99.90;;;;;;5063041;28;20547;-84
2022/01/27 04:45:33;;;;;;;33.50;18.40;;;4.00;99.90;;;;;;5043901;28;20996;-82
2022/01/27 04:48:08;;;;;;;32.50;17.10;;;4.00;99.90;;;;;;5062422;28;20460;-83
2022/01/27 04:50:35;;;;;;;31.07;17.30;;;4.00;99.90;;;;;;5063904;28;20481;-84
2022/01/27 04:53:06;;;;;;;33.93;17.67;;;4.10;99.90;;;;;;5062963;28;20602;-83
2022/01/27 04:55:33;;;;;;;33.70;19.07;;;4.10;99.90;;;;;;5043924;28;20468;-82
2022/01/27 04:58:09;;;;;;;30.50;17.90;;;4.10;99.90;;;;;;5062835;28;20460;-83
2022/01/27 05:00:36;;;;;;;35.90;18.77;;;4.20;99.90;;;;;;5063380;28;21141;-82
2022/01/27 05:03:12;;;;;;;38.33;19.50;;;4.20;99.90;;;;;;5062925;28;20460;-82
2022/01/27 05:05:39;;;;;;;32.57;18.17;;;4.20;99.90;;;;;;5074637;22;20459;-79
2022/01/27 05:08:15;;;;;;;30.10;17.10;;;4.20;99.90;;;;;;5009841;28;20459;-80
2022/01/27 05:10:41;;;;;;;27.73;16.90;;;4.20;99.90;;;;;;5018059;28;21012;-80
2022/01/27 05:13:12;;;;;;;34.07;17.30;;;4.20;99.90;;;;;;5017981;28;20449;-80
2022/01/27 05:15:44;;;;;;;33.10;16.77;;;4.30;99.90;;;;;;5017561;28;20478;-79
2022/01/27 05:18:11;;;;;;;29.63;16.60;;;4.30;99.90;;;;;;5018504;28;20453;-79
2022/01/27 05:20:38;;;;;;;31.60;17.53;;;4.40;99.90;;;;;;5015176;28;20461;-80
2022/01/27 05:23:05;;;;;;;26.67;16.50;;;4.40;99.90;;;;;;5018288;28;20464;-79
2022/01/27 05:25:33;;;;;;;29.70;16.17;;;4.40;99.90;;;;;;5017871;28;20458;-79
2022/01/27 05:28:00;;;;;;;29.70;15.20;;;4.50;99.90;;;;;;5019373;28;20469;-79
2022/01/27 05:30:27;;;;;;;29.50;17.57;;;4.40;99.90;;;;;;5018189;28;20485;-80
2022/01/27 05:32:54;;;;;;;29.83;17.80;;;4.40;99.90;;;;;;5018155;28;20831;-80
2022/01/27 05:35:20;;;;;;;30.70;17.47;;;4.50;99.90;;;;;;5018248;28;20892;-80
2022/01/27 05:37:47;;;;;;;35.87;17.30;;;4.50;99.90;;;;;;5017537;28;20464;-78
2022/01/27 05:40:14;;;;;;;37.30;22.70;;;4.40;99.90;;;;;;5017414;28;20446;-80
2022/01/27 05:42:43;;;;;;;30.57;16.40;;;4.40;99.90;;;;;;5018783;28;20454;-79
2022/01/27 05:45:10;;;;;;;33.40;17.67;;;4.50;99.90;;;;;;5017850;28;20453;-80
2022/01/27 05:47:37;;;;;;;30.60;16.70;;;4.50;99.90;;;;;;5018017;28;20484;-79
2022/01/27 05:50:05;;;;;;;29.23;14.90;;;4.50;99.90;;;;;;5017571;28;20454;-80
2022/01/27 05:52:32;;;;;;;34.80;17.20;;;4.50;99.90;;;;;;5016896;28;20457;-80
2022/01/27 05:54:59;;;;;;;29.53;16.40;;;4.50;99.90;;;;;;5016145;28;20446;-80
2022/01/27 05:57:26;;;;;;;29.70;15.90;;;4.60;99.90;;;;;;5017160;28;20472;-79
2022/01/27 05:59:54;;;;;;;28.03;15.20;;;4.70;99.90;;;;;;5016857;28;20456;-80
2022/01/27 06:02:21;;;;;;;27.67;17.88;;;4.70;99.90;;;;;;5016972;28;20442;-80
2022/01/27 06:04:47;;;;;;;35.60;17.43;;;4.70;99.90;;;;;;5017968;28;20238;-79
2022/01/27 06:07:15;;;;;;;30.27;18.30;;;4.80;99.90;;;;;;5017580;28;20485;-79
2022/01/27 06:09:42;;;;;;;30.53;16.60;;;4.80;99.90;;;;;;5019106;28;20456;-79
2022/01/27 06:12:10;;;;;;;31.80;16.50;;;4.80;99.90;;;;;;5017530;28;20583;-80
2022/01/27 06:14:36;;;;;;;25.67;15.27;;;4.90;99.90;;;;;;5016580;28;20982;-79
2022/01/27 06:17:05;;;;;;;27.17;14.63;;;4.80;99.90;;;;;;5018704;28;20480;-79
2022/01/27 06:19:31;;;;;;;25.93;16.20;;;4.90;99.90;;;;;;5021914;28;20586;-79
2022/01/27 06:21:58;;;;;;;30.40;16.27;;;4.90;99.90;;;;;;5017750;28;20459;-80
2022/01/27 06:24:25;;;;;;;29.47;15.77;;;4.90;99.90;;;;;;5016896;28;20480;-80
2022/01/27 06:26:52;;;;;;;28.20;15.03;;;4.90;99.90;;;;;;5018313;28;20481;-80
2022/01/27 06:29:18;;;;;;;31.90;17.97;;;4.90;99.90;;;;;;5018555;28;20537;-79
2022/01/27 06:31:47;;;;;;;30.10;16.10;;;4.90;99.90;;;;;;5013159;28;20666;-78
2022/01/27 06:34:15;;;;;;;29.63;17.67;;;4.90;99.90;;;;;;5013342;28;20465;-80
2022/01/27 06:36:42;;;;;;;30.73;17.40;;;4.90;99.90;;;;;;5013046;28;20476;-79
2022/01/27 06:39:09;;;;;;;27.80;16.47;;;4.80;99.90;;;;;;5000340;28;20826;-78
2022/01/27 06:41:36;;;;;;;34.03;16.60;;;4.80;99.90;;;;;;4999858;28;20477;-82
2022/01/27 06:44:02;;;;;;;31.87;17.00;;;4.90;99.90;;;;;;5017463;28;20460;-82
2022/01/27 06:46:29;;;;;;;30.50;16.63;;;4.90;99.90;;;;;;5018021;28;20481;-80
2022/01/27 06:48:56;;;;;;;29.30;16.77;;;4.80;99.90;;;;;;5016934;28;20453;-82
2022/01/27 06:51:26;;;;;;;26.70;16.27;;;4.90;99.90;;;;;;5009353;28;20872;-83
2022/01/27 06:53:53;;;;;;;32.90;17.57;;;4.90;99.90;;;;;;5024548;28;20883;-83
2022/01/27 06:56:20;;;;;;;31.23;15.97;;;4.80;99.90;;;;;;5029264;28;20507;-82
2022/01/27 06:58:47;;;;;;;30.63;15.53;;;4.90;99.90;;;;;;5029094;28;20448;-82
2022/01/27 07:01:14;;;;;;;35.30;16.53;;;5.00;99.90;;;;;;5029040;28;20545;-84
2022/01/27 07:03:40;;;;;;;33.90;16.20;;;5.00;99.90;;;;;;5026707;28;20460;-83
2022/01/27 07:06:07;;;;;;;27.90;14.57;;;5.00;99.90;;;;;;5026175;28;20586;-82
2022/01/27 07:08:36;;;;;;;29.07;16.00;;;5.10;99.90;;;;;;5025736;28;20458;-83
2022/01/27 07:11:02;;;;;;;24.23;14.97;;;5.20;99.90;;;;;;5025125;28;20494;-83
2022/01/27 07:13:29;;;;;;;28.80;16.50;;;5.20;99.90;;;;;;5024833;28;20526;-81
2022/01/27 07:15:57;;;;;;;27.60;15.30;;;5.20;99.90;;;;;;5027892;28;20844;-83
2022/01/27 07:18:24;;;;;;;25.77;14.83;;;5.20;99.90;;;;;;5027691;28;20998;-83
2022/01/27 07:20:51;;;;;;;28.47;15.97;;;5.30;99.90;;;;;;5026062;28;20452;-82
2022/01/27 07:23:20;;;;;;;28.87;16.10;;;5.30;99.90;;;;;;5026865;28;20486;-82
2022/01/27 07:25:48;;;;;;;28.60;16.30;;;5.30;99.90;;;;;;5027512;28;20478;-83
2022/01/27 07:28:15;;;;;;;29.40;16.03;;;5.30;99.90;;;;;;5021328;28;20456;-83
2022/01/27 07:30:41;;;;;;;24.10;16.57;;;5.30;99.90;;;;;;5026591;28;20549;-82
2022/01/27 07:33:08;;;;;;;31.20;16.17;;;5.30;99.90;;;;;;5027822;28;20452;-84
2022/01/27 07:35:35;;;;;;;28.30;16.50;;;5.30;99.90;;;;;;5028505;28;20474;-83
2022/01/27 07:38:02;;;;;;;30.47;16.13;;;5.30;99.90;;;;;;5028042;28;20887;-83
2022/01/27 07:40:30;;;;;;;27.73;15.67;;;5.40;99.90;;;;;;5029429;28;20484;-84
2022/01/27 07:42:58;;;;;;;34.80;17.43;;;5.40;99.90;;;;;;5027883;28;20447;-85
2022/01/27 07:45:25;;;;;;;25.73;15.37;;;5.40;99.90;;;;;;5027406;28;20471;-82
2022/01/27 07:47:52;;;;;;;28.50;16.43;;;5.40;99.90;;;;;;5026833;28;20946;-83
2022/01/27 07:50:19;;;;;;;28.00;15.57;;;5.40;99.90;;;;;;5026277;28;20468;-82
2022/01/27 07:52:45;;;;;;;32.30;17.13;;;5.50;99.90;;;;;;5027019;28;20557;-83
2022/01/27 07:55:13;;;;;;;25.17;13.70;;;5.50;99.90;;;;;;5027048;28;20511;-83
2022/01/27 07:57:40;;;;;;;30.17;17.03;;;5.50;99.90;;;;;;5025985;28;20467;-83
2022/01/27 08:00:11;;;;;;;27.40;16.17;;;5.60;99.90;;;;;;5034619;28;20450;-84
2022/01/27 08:02:37;;;;;;;27.37;14.50;;;5.50;99.90;;;;;;5022644;28;20452;-83
2022/01/27 08:05:05;;;;;;;34.30;18.63;;;5.50;99.90;;;;;;5033909;28;20461;-83
2022/01/27 08:07:32;;;;;;;35.60;18.60;;;5.50;99.90;;;;;;5033040;28;20518;-85
2022/01/27 08:09:59;;;;;;;33.40;17.70;;;5.50;99.90;;;;;;5035209;28;20519;-83
2022/01/27 08:12:25;;;;;;;31.03;18.53;;;5.40;99.90;;;;;;5035908;28;20470;-83
2022/01/27 08:14:52;;;;;;;33.87;19.10;;;5.40;99.90;;;;;;5034635;28;20431;-83
2022/01/27 08:17:20;;;;;;;43.00;20.90;;;5.30;99.90;;;;;;5030291;28;20503;-83
2022/01/27 08:19:47;;;;;;;34.20;19.57;;;5.40;99.90;;;;;;5029777;28;20461;-85
2022/01/27 08:22:14;;;;;;;36.30;19.83;;;5.30;99.90;;;;;;5031022;28;20458;-83
2022/01/27 08:24:41;;;;;;;34.73;19.00;;;5.30;99.90;;;;;;5030459;28;20473;-83
2022/01/27 08:27:12;;;;;;;33.90;20.10;;;5.40;99.90;;;;;;5025610;28;20709;-83
2022/01/27 08:29:42;;;;;;;39.07;20.23;;;5.40;99.90;;;;;;5025334;28;20527;-85
2022/01/27 08:32:16;;;;;;;37.47;21.30;;;5.40;99.90;;;;;;5024280;28;20498;-83
2022/01/27 08:34:44;;;;;;;39.13;20.17;;;5.40;99.90;;;;;;5026767;28;20457;-84
2022/01/27 08:37:12;;;;;;;33.90;19.40;;;5.40;99.90;;;;;;5020737;28;20510;-84
2022/01/27 08:39:40;;;;;;;39.23;20.07;;;5.40;99.90;;;;;;5021600;28;20527;-84
2022/01/27 08:42:09;;;;;;;38.17;21.53;;;5.30;99.90;;;;;;5022514;28;20450;-84
2022/01/27 08:44:36;;;;;;;44.30;21.53;;;5.30;99.90;;;;;;5013566;28;20946;-83
2022/01/27 08:47:04;;;;;;;43.80;23.03;;;5.20;99.90;;;;;;5019505;28;20480;-84
2022/01/27 08:49:31;;;;;;;39.27;22.47;;;5.20;99.90;;;;;;5022179;28;20464;-83
2022/01/27 08:51:59;;;;;;;42.97;22.20;;;5.30;99.90;;;;;;5005769;28;20527;-84
2022/01/27 08:54:27;;;;;;;40.80;23.33;;;5.30;99.90;;;;;;5019109;28;20478;-85
2022/01/27 08:56:54;;;;;;;42.57;21.63;;;5.30;99.90;;;;;;5021551;28;20465;-84
2022/01/27 08:59:21;;;;;;;41.83;23.47;;;5.30;99.90;;;;;;5017799;28;20458;-82
2022/01/27 09:01:48;;;;;;;42.33;25.27;;;5.40;99.90;;;;;;5016766;28;20473;-84
2022/01/27 09:04:15;;;;;;;45.03;23.60;;;5.30;99.90;;;;;;5015801;28;20544;-84
2022/01/27 09:06:42;;;;;;;38.60;21.77;;;5.40;99.90;;;;;;5017211;28;20513;-84
2022/01/27 09:09:10;;;;;;;40.53;21.67;;;5.40;99.90;;;;;;5017584;28;20520;-84
2022/01/27 09:11:37;;;;;;;45.60;24.67;;;5.40;99.90;;;;;;5014901;28;20944;-83
2022/01/27 09:14:05;;;;;;;43.60;25.03;;;5.40;99.90;;;;;;5015743;28;20546;-83
2022/01/27 09:16:32;;;;;;;37.33;22.10;;;5.40;99.90;;;;;;5020570;28;20501;-83
2022/01/27 09:19:01;;;;;;;40.83;22.23;;;5.40;99.90;;;;;;5019801;28;20534;-83
2022/01/27 09:21:39;;;;;;;42.90;26.47;;;5.40;99.90;;;;;;5017962;28;20457;-83
2022/01/27 09:24:07;;;;;;;40.63;23.30;;;5.40;99.90;;;;;;5014092;28;20486;-81
2022/01/27 09:26:50;;;;;;;42.20;24.77;;;5.40;99.90;;;;;;5016828;28;20478;-82
2022/01/27 09:29:19;;;;;;;44.50;24.33;;;5.40;99.90;;;;;;5010710;28;20452;-83
2022/01/27 09:31:48;;;;;;;40.00;22.60;;;5.40;99.90;;;;;;5005470;28;20848;-83
2022/01/27 09:34:14;;;;;;;49.17;26.03;;;5.40;99.90;;;;;;5016671;28;20527;-83
2022/01/27 09:37:23;;;;;;;34.50;20.47;;;5.40;99.90;;;;;;5018236;28;20483;-84
2022/01/27 09:39:56;;;;;;;36.60;20.87;;;5.40;99.90;;;;;;4949991;29;20470;-83
2022/01/27 09:42:59;;;;;;;39.63;21.67;;;5.40;99.90;;;;;;5012448;28;20468;-83
2022/01/27 09:46:09;;;;;;;42.23;23.57;;;5.50;99.90;;;;;;5022914;28;20463;-84
2022/01/27 09:48:41;;;;;;;32.80;21.97;;;5.50;99.90;;;;;;5013334;28;20466;-85
2022/01/27 09:51:24;;;;;;;37.30;20.93;;;5.60;99.90;;;;;;5015581;28;20460;-84
2022/01/27 09:53:52;;;;;;;34.87;21.63;;;5.60;99.90;;;;;;5021545;28;20488;-84
2022/01/27 09:56:19;;;;;;;36.00;22.77;;;5.60;99.90;;;;;;5023670;28;20488;-85
2022/01/27 09:58:49;;;;;;;40.10;21.37;;;5.70;99.90;;;;;;5029895;28;20509;-84
2022/01/27 10:01:16;;;;;;;37.17;20.57;;;5.70;99.90;;;;;;5019696;28;20450;-85
2022/01/27 10:03:53;;;;;;;34.10;19.33;;;5.70;99.90;;;;;;5023049;28;20452;-85
2022/01/27 10:06:21;;;;;;;32.30;19.70;;;5.70;99.90;;;;;;5021837;28;20486;-85
2022/01/27 10:09:11;;;;;;;34.27;19.80;;;5.70;99.90;;;;;;5009864;28;20449;-85
2022/01/27 10:11:38;;;;;;;32.90;19.37;;;5.80;99.90;;;;;;5015653;28;20484;-84
2022/01/27 10:14:23;;;;;;;30.60;20.23;;;5.80;99.90;;;;;;5016467;28;20470;-85
2022/01/27 10:16:53;;;;;;;31.70;18.90;;;5.80;99.90;;;;;;5019532;28;20483;-85
2022/01/27 10:19:20;;;;;;;28.30;18.30;;;5.80;99.90;;;;;;5028240;28;20566;-83
2022/01/27 10:21:47;;;;;;;33.93;19.43;;;5.90;99.90;;;;;;5032880;28;20474;-85
2022/01/27 10:24:18;;;;;;;33.13;21.57;;;5.90;99.90;;;;;;5034291;28;20470;-84
2022/01/27 10:26:52;;;;;;;32.20;19.50;;;5.80;99.90;;;;;;5031670;28;20475;-83
2022/01/27 10:29:34;;;;;;;30.37;19.57;;;5.90;99.90;;;;;;5032926;28;20435;-84
2022/01/27 10:32:06;;;;;;;26.17;18.47;;;5.80;99.90;;;;;;5034920;28;20483;-84
2022/01/27 10:34:53;;;;;;;35.70;19.90;;;5.80;99.90;;;;;;5032596;28;20518;-85
2022/01/27 10:37:20;;;;;;;27.90;18.57;;;5.90;99.90;;;;;;5034661;28;20479;-85
2022/01/27 10:39:48;;;;;;;35.83;20.07;;;5.90;99.90;;;;;;5030202;28;20596;-85
2022/01/27 10:42:15;;;;;;;34.00;21.43;;;6.00;99.90;;;;;;5032100;28;20457;-84
2022/01/27 10:44:47;;;;;;;32.30;21.70;;;6.00;99.90;;;;;;5032645;28;20453;-85
2022/01/27 10:47:18;;;;;;;39.13;21.37;;;6.00;99.90;;;;;;5033511;28;20482;-84
2022/01/27 10:49:49;;;;;;;34.67;19.60;;;6.00;99.90;;;;;;5033484;28;20548;-85
2022/01/27 10:52:20;;;;;;;27.40;18.57;;;6.10;99.90;;;;;;5034008;28;20480;-85
2022/01/27 10:54:56;;;;;;;26.87;18.53;;;6.20;99.90;;;;;;5033724;28;20449;-83
2022/01/27 10:57:25;;;;;;;31.57;20.00;;;6.20;99.90;;;;;;5032345;28;20510;-83
2022/01/27 11:00:08;;;;;;;26.93;17.83;;;6.20;99.90;;;;;;5031024;28;20445;-84
2022/01/27 11:02:48;;;;;;;27.17;18.33;;;6.20;99.90;;;;;;5028372;28;20982;-83
2022/01/27 11:05:18;;;;;;;32.30;18.77;;;6.20;99.90;;;;;;5028708;28;20467;-83
2022/01/27 11:07:45;;;;;;;26.00;17.40;;;6.20;99.90;;;;;;5052362;23;20496;-82
2022/01/27 11:10:13;;;;;;;30.30;19.83;;;6.20;99.90;;;;;;5032083;28;20558;-83
2022/01/27 11:12:42;;;;;;;24.63;18.43;;;6.20;99.90;;;;;;5033175;28;20491;-83
2022/01/27 11:15:11;;;;;;;31.13;19.27;;;6.20;99.90;;;;;;5031998;28;20474;-83
2022/01/27 11:17:39;;;;;;;24.33;17.10;;;6.20;99.90;;;;;;5034226;28;20557;-82
2022/01/27 11:20:25;;;;;;;25.40;16.37;;;6.30;99.90;;;;;;5033963;28;20455;-83
2022/01/27 11:23:34;;;;;;;27.10;17.37;;;6.30;99.90;;;;;;5039945;28;20540;-84
2022/01/27 11:25:59;;;;;;;22.87;13.83;;;6.30;99.90;;;;;;5036241;28;21009;-83
2022/01/27 11:28:27;;;;;;;23.77;17.27;;;6.30;99.90;;;;;;5037929;28;20463;-83
2022/01/27 11:31:12;;;;;;;23.60;15.07;;;6.30;99.90;;;;;;5038619;28;20476;-83
2022/01/27 11:33:39;;;;;;;23.80;16.40;;;6.40;99.90;;;;;;5037118;28;20490;-84
2022/01/27 11:36:08;;;;;;;21.53;15.40;;;6.40;99.90;;;;;;5032620;28;20480;-83
2022/01/27 11:38:34;;;;;;;25.33;15.33;;;6.40;99.90;;;;;;5035651;28;20474;-83
2022/01/27 11:41:01;;;;;;;23.53;16.33;;;6.40;99.90;;;;;;5038020;28;20462;-83
2022/01/27 11:43:33;;;;;;;20.43;15.17;;;6.50;99.90;;;;;;5036247;28;20822;-82
2022/01/27 11:46:13;;;;;;;24.07;16.30;;;6.50;99.90;;;;;;5030697;28;20539;-82
2022/01/27 11:48:40;;;;;;;20.07;14.30;;;6.40;99.90;;;;;;5030292;28;20462;-84
2022/01/27 11:51:12;;;;;;;23.07;14.90;;;6.50;99.90;;;;;;5037185;28;20978;-82
2022/01/27 11:53:42;;;;;;;21.53;15.70;;;6.50;99.90;;;;;;5035722;28;20484;-82
2022/01/27 11:56:15;;;;;;;30.20;18.03;;;6.70;99.90;;;;;;5034447;28;20468;-82
2022/01/27 11:58:45;;;;;;;21.63;14.73;;;6.70;99.90;;;;;;5046329;28;20447;-80
2022/01/27 12:01:19;;;;;;;20.37;14.17;;;6.70;99.90;;;;;;5039308;28;20546;-83
2022/01/27 12:04:16;;;;;;;18.43;14.30;;;6.80;99.90;;;;;;5033697;28;20506;-81
2022/01/27 12:07:02;;;;;;;20.63;14.60;;;6.80;99.90;;;;;;5035731;28;20496;-83
2022/01/27 12:09:35;;;;;;;25.70;16.90;;;6.80;99.90;;;;;;5039647;28;20569;-82
2022/01/27 12:12:06;;;;;;;21.97;17.00;;;6.90;99.90;;;;;;5031062;28;20486;-82
2022/01/27 12:15:09;;;;;;;28.23;17.20;;;6.80;99.90;;;;;;5032394;28;20510;-82
2022/01/27 12:17:37;;;;;;;26.00;16.30;;;6.70;99.90;;;;;;5034897;28;20466;-82
2022/01/27 12:20:08;;;;;;;26.73;15.53;;;6.70;99.90;;;;;;5034001;28;20937;-82
2022/01/27 12:23:04;;;;;;;21.60;16.80;;;6.70;99.90;;;;;;5031531;28;20458;-81
2022/01/27 12:25:45;;;;;;;18.40;14.17;;;6.80;99.90;;;;;;5026735;28;20468;-81
2022/01/27 12:28:12;;;;;;;25.23;16.30;;;6.80;99.90;;;;;;5030244;28;20494;-82
2022/01/27 12:30:39;;;;;;;20.57;15.70;;;6.90;99.90;;;;;;5036205;28;20470;-82
2022/01/27 12:33:07;;;;;;;18.90;15.57;;;6.90;99.90;;;;;;5035425;28;20488;-82
2022/01/27 12:35:34;;;;;;;19.40;15.40;;;6.90;99.90;;;;;;5031006;28;20460;-82
2022/01/27 12:38:00;;;;;;;24.60;18.07;;;6.90;99.90;;;;;;5026654;28;20480;-81
2022/01/27 12:40:33;;;;;;;19.30;14.90;;;6.80;99.90;;;;;;5032405;28;20464;-82
2022/01/27 12:43:03;;;;;;;20.80;15.53;;;6.80;99.90;;;;;;5033984;28;20463;-81
2022/01/27 12:45:32;;;;;;;20.57;15.50;;;6.80;99.90;;;;;;5025923;28;20548;-82
2022/01/27 12:48:01;;;;;;;23.10;16.10;;;6.90;99.90;;;;;;5037373;28;20864;-80
2022/01/27 12:50:30;;;;;;;23.37;16.40;;;6.90;99.90;;;;;;5041717;28;20452;-81
2022/01/27 12:53:02;;;;;;;22.83;16.03;;;7.00;99.90;;;;;;5042617;28;20498;-79
2022/01/27 12:55:33;;;;;;;21.53;15.77;;;6.90;99.90;;;;;;5042521;28;20457;-80
2022/01/27 12:58:02;;;;;;;21.13;16.53;;;7.00;99.90;;;;;;5036570;28;20491;-80
2022/01/27 13:00:38;;;;;;;21.93;16.70;;;7.00;99.90;;;;;;5045742;28;20455;-80
2022/01/27 13:03:05;;;;;;;26.60;19.00;;;7.00;99.90;;;;;;5044710;28;20454;-81
2022/01/27 13:05:38;;;;;;;23.50;17.07;;;7.00;99.90;;;;;;5047265;28;20458;-80
2022/01/27 13:08:07;;;;;;;27.63;19.40;;;6.90;99.90;;;;;;5045696;28;20508;-81
2022/01/27 13:10:34;;;;;;;27.77;18.90;;;7.00;99.90;;;;;;5047086;28;20531;-80
2022/01/27 13:13:07;;;;;;;30.03;21.90;;;7.00;99.90;;;;;;5037748;28;20858;-80